createdAt,value
2022-09-12T00:01:10.789Z,12.63
2022-09-12T00:03:38.810Z,13.57
2022-09-12T00:06:25.881Z,12.87
2022-09-12T00:08:58.023Z,13.53
2022-09-12T00:11:26.605Z,14.10
2022-09-12T00:13:58.145Z,17.83
2022-09-12T00:16:26.795Z,17.40
2022-09-12T00:18:54.681Z,16.83
2022-09-12T00:21:22.530Z,18.83
2022-09-12T00:23:50.874Z,17.47
2022-09-12T00:26:19.069Z,17.10
2022-09-12T00:28:46.980Z,17.40
2022-09-12T00:31:21.750Z,14.43
2022-09-12T00:33:49.445Z,16.03
2022-09-12T00:36:18.617Z,16.67
2022-09-12T00:38:46.488Z,16.47
2022-09-12T00:41:16.674Z,16.27
2022-09-12T00:43:45.521Z,16.33
2022-09-12T00:46:28.268Z,15.17
2022-09-12T00:49:08.165Z,13.87
2022-09-12T00:51:38.061Z,14.63
2022-09-12T00:54:11.533Z,16.27
2022-09-12T00:56:41.677Z,18.33
2022-09-12T00:59:14.300Z,19.63
2022-09-12T01:01:42.352Z,18.07
2022-09-12T01:04:11.520Z,18.67
2022-09-12T01:06:43.415Z,18.63
2022-09-12T01:09:16.495Z,18.10
2022-09-12T01:11:44.933Z,18.80
2022-09-12T01:14:12.717Z,19.70
2022-09-12T01:16:40.771Z,16.10
2022-09-12T01:19:27.045Z,14.43
2022-09-12T01:21:57.621Z,13.90
2022-09-12T01:25:03.705Z,15.03
2022-09-12T01:27:49.813Z,14.40
2022-09-12T01:30:17.247Z,15.93
2022-09-12T01:32:54.035Z,15.23
2022-09-12T01:35:21.547Z,15.97
2022-09-12T01:37:49.146Z,15.30
2022-09-12T01:40:22.754Z,15.97
2022-09-12T01:42:54.702Z,16.17
2022-09-12T01:45:27.127Z,17.00
2022-09-12T01:48:00.093Z,16.73
2022-09-12T01:50:36.149Z,17.83
2022-09-12T01:53:23.802Z,16.80
2022-09-12T01:56:20.416Z,16.17
2022-09-12T01:58:53.667Z,17.67
2022-09-12T02:01:27.169Z,17.63
2022-09-12T02:04:01.196Z,18.87
2022-09-12T02:06:32.161Z,19.33
2022-09-12T02:09:09.130Z,20.10
2022-09-12T02:11:39.273Z,17.53
2022-09-12T02:14:22.549Z,16.57
2022-09-12T02:16:53.610Z,16.97
2022-09-12T02:19:23.089Z,16.20
2022-09-12T02:21:52.705Z,17.33
2022-09-12T02:24:21.134Z,17.80
2022-09-12T02:26:50.786Z,19.10
2022-09-12T02:29:18.439Z,19.77
2022-09-12T02:31:47.081Z,19.40
2022-09-12T02:34:33.400Z,19.27
2022-09-12T02:37:12.489Z,20.23
2022-09-12T02:39:45.117Z,18.93
2022-09-12T02:42:13.260Z,18.73
2022-09-12T02:44:40.907Z,18.50
2022-09-12T02:47:13.661Z,19.30
2022-09-12T02:49:41.130Z,16.80
2022-09-12T02:52:08.593Z,17.67
2022-09-12T02:54:36.734Z,19.40
2022-09-12T02:57:04.512Z,18.20
2022-09-12T02:59:32.130Z,18.10
2022-09-12T03:02:05.356Z,16.73
2022-09-12T03:04:51.940Z,17.43
2022-09-12T03:07:38.232Z,18.17
2022-09-12T03:10:05.853Z,18.73
2022-09-12T03:12:40.484Z,18.93
2022-09-12T03:15:29.690Z,18.57
2022-09-12T03:18:05.409Z,19.70
2022-09-12T03:20:41.862Z,19.33
2022-09-12T03:23:15.612Z,20.23
2022-09-12T03:25:45.286Z,18.23
2022-09-12T03:28:14.883Z,18.20
2022-09-12T03:30:44.457Z,17.83
2022-09-12T03:33:12.701Z,19.80
2022-09-12T03:35:40.196Z,20.10
2022-09-12T03:38:07.838Z,19.50
2022-09-12T03:40:35.885Z,18.40
2022-09-12T03:43:03.761Z,21.77
2022-09-12T03:45:31.245Z,20.47
2022-09-12T03:47:59.124Z,20.53
2022-09-12T03:50:26.605Z,19.70
2022-09-12T03:52:54.353Z,20.93
2022-09-12T03:55:21.953Z,20.83
2022-09-12T03:57:52.908Z,20.50
2022-09-12T04:00:20.382Z,20.70
2022-09-12T04:02:47.817Z,19.47
2022-09-12T04:05:15.498Z,19.77
2022-09-12T04:07:42.966Z,20.37
2022-09-12T04:10:10.500Z,20.07
2022-09-12T04:12:37.924Z,22.17
2022-09-12T04:15:05.702Z,21.03
2022-09-12T04:17:33.300Z,20.97
2022-09-12T04:20:00.781Z,21.87
2022-09-12T04:22:28.437Z,20.03
2022-09-12T04:24:56.042Z,22.10
2022-09-12T04:27:23.557Z,21.73
2022-09-12T04:29:51.306Z,21.80
2022-09-12T04:32:18.787Z,21.60
2022-09-12T04:34:46.433Z,21.07
2022-09-12T04:37:14.138Z,20.63
2022-09-12T04:39:41.592Z,21.57
2022-09-12T04:42:09.287Z,19.67
2022-09-12T04:44:36.703Z,21.73
2022-09-12T04:47:04.187Z,21.10
2022-09-12T04:49:31.638Z,21.37
2022-09-12T04:52:00.258Z,20.03
2022-09-12T04:54:27.852Z,21.13
2022-09-12T04:56:55.358Z,18.53
2022-09-12T04:59:23.051Z,21.50
2022-09-12T05:01:50.783Z,18.27
2022-09-12T05:04:18.594Z,19.47
2022-09-12T05:06:46.093Z,19.87
2022-09-12T05:09:14.168Z,19.07
2022-09-12T05:12:03.165Z,19.63
2022-09-12T05:14:29.891Z,18.90
2022-09-12T05:16:57.328Z,17.50
2022-09-12T05:19:25.178Z,17.87
2022-09-12T05:21:52.579Z,17.13
2022-09-12T05:24:20.093Z,17.83
2022-09-12T05:26:47.527Z,16.73
2022-09-12T05:29:14.956Z,16.93
2022-09-12T05:31:42.500Z,17.03
2022-09-12T05:34:10.441Z,15.20
2022-09-12T05:36:38.105Z,13.20
2022-09-12T05:39:05.583Z,13.53
2022-09-12T05:41:33.419Z,12.47
2022-09-12T05:44:02.153Z,12.80
2022-09-12T05:46:36.673Z,11.37
2022-09-12T05:49:08.728Z,13.10
2022-09-12T05:51:37.707Z,14.73
2022-09-12T05:54:06.011Z,16.20
2022-09-12T05:56:34.499Z,18.47
2022-09-12T05:59:03.123Z,19.93
2022-09-12T06:01:32.144Z,22.97
2022-09-12T06:04:01.555Z,25.00
2022-09-12T06:06:29.883Z,23.63
2022-09-12T06:09:01.462Z,19.30
2022-09-12T06:11:30.278Z,15.67
2022-09-12T06:13:58.645Z,14.77
2022-09-12T06:16:30.308Z,13.00
2022-09-12T06:19:02.212Z,14.00
2022-09-12T06:21:30.322Z,12.10
2022-09-12T06:23:57.991Z,13.83
2022-09-12T06:26:25.801Z,12.27
2022-09-12T06:28:54.740Z,13.43
2022-09-12T06:31:26.511Z,10.97
2022-09-12T06:33:54.961Z,11.73
2022-09-12T06:36:23.864Z,12.27
2022-09-12T06:38:55.329Z,11.80
2022-09-12T06:41:23.050Z,10.60
2022-09-12T06:43:50.590Z,11.00
2022-09-12T06:46:21.133Z,11.40
2022-09-12T06:48:49.065Z,10.87
2022-09-12T06:51:18.047Z,10.77
2022-09-12T06:53:45.890Z,11.27
2022-09-12T06:56:17.898Z,9.73
2022-09-12T06:58:46.108Z,9.93
2022-09-12T07:01:15.155Z,9.80
2022-09-12T07:03:43.894Z,8.97
2022-09-12T07:06:15.357Z,9.03
2022-09-12T07:08:43.110Z,8.70
2022-09-12T07:11:11.779Z,8.57
2022-09-12T07:13:39.663Z,8.87
2022-09-12T07:16:07.152Z,10.10
2022-09-12T07:18:35.533Z,9.33
2022-09-12T07:21:03.788Z,8.87
2022-09-12T07:23:31.732Z,9.77
2022-09-12T07:25:59.842Z,10.20
2022-09-12T07:28:28.332Z,11.00
2022-09-12T07:30:55.845Z,8.60
2022-09-12T07:33:29.637Z,9.03
2022-09-12T07:36:01.434Z,9.30
2022-09-12T07:38:28.925Z,9.30
2022-09-12T07:40:56.350Z,10.33
2022-09-12T07:43:24.175Z,8.90
2022-09-12T07:45:58.267Z,8.70
2022-09-12T07:48:27.028Z,10.07
2022-09-12T07:51:02.633Z,9.17
2022-09-12T07:53:35.337Z,8.90
2022-09-12T07:56:03.533Z,8.53
2022-09-12T07:58:31.532Z,8.97
2022-09-12T08:01:05.599Z,9.00
2022-09-12T08:03:33.138Z,8.37
2022-09-12T08:06:19.819Z,8.47
2022-09-12T08:08:48.054Z,9.33
2022-09-12T08:11:16.506Z,8.37
2022-09-12T08:13:44.903Z,8.87
2022-09-12T08:16:13.529Z,9.17
2022-09-12T08:18:41.401Z,9.37
2022-09-12T08:21:12.593Z,9.23
2022-09-12T08:23:40.236Z,8.83
2022-09-12T08:26:07.976Z,9.27
2022-09-12T08:28:36.071Z,9.43
2022-09-12T08:31:04.375Z,8.63
2022-09-12T08:33:32.302Z,8.80
2022-09-12T08:36:06.633Z,8.20
2022-09-12T08:38:35.015Z,8.10
2022-09-12T08:41:10.432Z,7.70
2022-09-12T08:43:40.647Z,10.13
2022-09-12T08:46:12.459Z,8.23
2022-09-12T08:48:40.821Z,8.43
2022-09-12T08:51:13.069Z,8.37
2022-09-12T08:53:40.661Z,8.23
2022-09-12T08:56:09.546Z,7.17
2022-09-12T08:58:40.098Z,7.67
2022-09-12T09:01:26.073Z,8.40
2022-09-12T09:03:53.714Z,7.70
2022-09-12T09:06:31.464Z,8.10
2022-09-12T09:09:08.804Z,7.97
2022-09-12T09:11:48.584Z,7.53
2022-09-12T09:14:34.854Z,7.77
2022-09-12T09:17:02.812Z,6.93
2022-09-12T09:19:37.734Z,6.83
2022-09-12T09:22:07.720Z,7.30
2022-09-12T09:24:43.970Z,6.87
2022-09-12T09:27:36.790Z,7.30
2022-09-12T09:30:04.140Z,7.23
2022-09-12T09:32:37.916Z,6.60
2022-09-12T09:35:19.456Z,7.03
2022-09-12T09:38:05.669Z,7.43
2022-09-12T09:40:50.502Z,7.83
2022-09-12T09:43:21.931Z,6.40
2022-09-12T09:45:50.107Z,6.40
2022-09-12T09:48:23.138Z,6.53
2022-09-12T09:50:50.835Z,6.53
2022-09-12T09:53:21.123Z,5.97
2022-09-12T09:55:49.768Z,7.00
2022-09-12T09:58:36.498Z,6.10
2022-09-12T10:01:05.892Z,5.57
2022-09-12T10:03:40.486Z,5.37
2022-09-12T10:06:23.769Z,5.07
2022-09-12T10:08:51.508Z,5.23
2022-09-12T10:11:23.336Z,5.13
2022-09-12T10:16:50.521Z,5.80
2022-09-12T10:19:22.374Z,4.60
2022-09-12T10:21:52.176Z,4.30
2022-09-12T10:24:31.253Z,4.37
2022-09-12T10:27:06.684Z,4.93
2022-09-12T10:29:35.507Z,4.00
2022-09-12T10:32:04.973Z,4.43
2022-09-12T10:34:45.652Z,4.03
2022-09-12T10:37:18.984Z,4.03
2022-09-12T10:39:51.971Z,4.70
2022-09-12T10:42:39.569Z,4.43
2022-09-12T10:45:18.224Z,3.70
2022-09-12T10:47:46.444Z,4.13
2022-09-12T10:50:23.086Z,4.13
2022-09-12T10:52:50.959Z,2.97
2022-09-12T10:55:18.410Z,2.87
2022-09-12T10:58:07.135Z,2.80
2022-09-12T11:00:36.360Z,3.40
2022-09-12T11:03:07.290Z,2.53
2022-09-12T11:05:47.338Z,4.20
2022-09-12T11:08:30.410Z,3.60
2022-09-12T11:10:57.914Z,3.70
2022-09-12T11:13:40.486Z,3.23
2022-09-12T11:16:26.426Z,3.37
2022-09-12T11:19:06.559Z,2.73
2022-09-12T11:21:39.853Z,2.60
2022-09-12T11:24:26.268Z,2.37
2022-09-12T11:26:56.799Z,2.70
2022-09-12T11:29:38.187Z,2.10
2022-09-12T11:32:11.623Z,2.40
2022-09-12T11:34:58.203Z,2.47
2022-09-12T11:37:34.267Z,2.33
2022-09-12T11:40:06.274Z,2.60
2022-09-12T11:42:36.023Z,2.53
2022-09-12T11:45:08.720Z,2.20
2022-09-12T11:47:37.237Z,2.57
2022-09-12T11:50:06.042Z,2.17
2022-09-12T11:52:37.771Z,2.67
2022-09-12T11:55:23.561Z,2.00
2022-09-12T11:57:53.753Z,2.33
2022-09-12T12:00:21.505Z,2.10
2022-09-12T12:02:56.496Z,2.10
2022-09-12T12:05:50.301Z,2.57
2022-09-12T12:08:17.774Z,2.23
2022-09-12T12:10:50.153Z,1.90
2022-09-12T12:13:20.004Z,1.97
2022-09-12T12:15:53.195Z,2.10
2022-09-12T12:18:23.626Z,1.77
2022-09-12T12:20:52.061Z,2.10
2022-09-12T12:23:35.398Z,2.80
2022-09-12T12:26:03.830Z,2.50
2022-09-12T12:28:58.015Z,2.10
2022-09-12T12:31:25.647Z,2.10
2022-09-12T12:33:54.547Z,1.87
2022-09-12T12:36:33.579Z,2.10
2022-09-12T12:39:21.044Z,2.03
2022-09-12T12:41:48.489Z,2.30
2022-09-12T12:44:34.679Z,2.10
2022-09-12T12:47:28.340Z,2.27
2022-09-12T12:50:01.911Z,2.37
2022-09-12T12:52:31.489Z,2.03
2022-09-12T12:55:03.148Z,2.20
2022-09-12T12:57:49.575Z,2.67
2022-09-12T13:00:26.288Z,2.83
2022-09-12T13:03:03.768Z,2.20
2022-09-12T13:05:38.950Z,2.67
2022-09-12T13:08:12.071Z,2.50
2022-09-12T13:10:39.700Z,2.00
2022-09-12T13:13:08.339Z,2.80
2022-09-12T13:15:38.845Z,2.60
2022-09-12T13:18:08.101Z,2.70
2022-09-12T13:20:38.829Z,2.60
2022-09-12T13:23:06.584Z,2.43
2022-09-12T13:25:37.890Z,2.63
2022-09-12T13:28:05.410Z,2.67
2022-09-12T13:30:37.595Z,2.77
2022-09-12T13:33:29.679Z,2.00
2022-09-12T13:36:16.065Z,2.50
2022-09-12T13:38:46.631Z,2.77
2022-09-12T13:41:22.175Z,2.80
2022-09-12T13:43:50.340Z,2.53
2022-09-12T13:46:29.183Z,2.17
2022-09-12T13:48:57.552Z,2.60
2022-09-12T13:51:26.860Z,2.27
2022-09-12T13:53:55.912Z,2.37
2022-09-12T13:56:23.409Z,2.90
2022-09-12T13:58:55.626Z,2.90
2022-09-12T14:01:24.020Z,2.60
2022-09-12T14:03:56.814Z,3.07
2022-09-12T14:06:26.376Z,2.63
2022-09-12T14:08:54.737Z,2.73
2022-09-12T14:11:25.163Z,2.73
2022-09-12T14:13:53.203Z,2.20
2022-09-12T14:16:21.036Z,2.83
2022-09-12T14:18:49.263Z,2.50
2022-09-12T14:21:27.057Z,2.83
2022-09-12T14:23:54.751Z,2.70
2022-09-12T14:26:22.378Z,2.20
2022-09-12T14:28:50.394Z,2.40
2022-09-12T14:31:17.840Z,2.90
2022-09-12T14:33:48.456Z,2.37
2022-09-12T14:36:26.186Z,2.27
2022-09-12T14:39:00.247Z,2.10
2022-09-12T14:41:32.664Z,2.30
2022-09-12T14:44:01.300Z,2.67
2022-09-12T14:46:40.022Z,2.10
2022-09-12T14:49:17.004Z,2.40
2022-09-12T14:51:51.169Z,2.90
2022-09-12T14:54:30.597Z,1.90
2022-09-12T14:57:02.393Z,2.30
2022-09-12T14:59:30.141Z,2.70
2022-09-12T15:02:16.286Z,2.30
2022-09-12T15:04:45.058Z,2.13
2022-09-12T15:07:31.385Z,2.03
2022-09-12T15:09:59.942Z,2.00
2022-09-12T15:12:27.508Z,2.03
2022-09-12T15:15:00.279Z,2.20
2022-09-12T15:17:27.750Z,1.77
2022-09-12T15:19:55.222Z,2.30
2022-09-12T15:22:24.406Z,1.93
2022-09-12T15:24:51.825Z,2.10
2022-09-12T15:27:19.490Z,1.87
2022-09-12T15:29:46.983Z,1.70
2022-09-12T15:32:22.951Z,1.83
2022-09-12T15:34:50.411Z,1.90
2022-09-12T15:37:18.403Z,2.20
2022-09-12T15:39:45.918Z,2.57
2022-09-12T15:42:14.157Z,2.20
2022-09-12T15:44:42.084Z,2.30
2022-09-12T15:47:12.460Z,2.47
2022-09-12T15:49:40.668Z,2.17
2022-09-12T15:52:16.209Z,2.30
2022-09-12T15:54:44.245Z,2.77
2022-09-12T15:57:11.700Z,2.40
2022-09-12T15:59:39.256Z,1.80
2022-09-12T16:02:06.869Z,2.10
2022-09-12T16:04:35.086Z,2.17
2022-09-12T16:07:02.752Z,3.10
2022-09-12T16:09:30.386Z,3.03
2022-09-12T16:11:57.829Z,2.07
2022-09-12T16:14:25.409Z,1.90
2022-09-12T16:17:19.430Z,2.00
2022-09-12T16:19:46.938Z,2.00
2022-09-12T16:22:14.471Z,2.17
2022-09-12T16:24:42.334Z,2.00
2022-09-12T16:27:09.788Z,2.10
2022-09-12T16:29:37.285Z,2.10
2022-09-12T16:32:05.141Z,2.27
2022-09-12T16:34:32.580Z,2.80
2022-09-12T16:37:00.081Z,1.73
2022-09-12T16:39:27.616Z,2.20
2022-09-12T16:41:55.077Z,2.20
2022-09-12T16:44:22.704Z,2.17
2022-09-12T16:46:50.238Z,2.30
2022-09-12T16:49:18.096Z,2.67
2022-09-12T16:51:45.606Z,2.13
2022-09-12T16:54:13.443Z,1.90
2022-09-12T16:56:41.272Z,2.30
2022-09-12T16:59:09.259Z,2.27
2022-09-12T17:01:36.937Z,2.10
2022-09-12T17:04:04.679Z,2.13
2022-09-12T17:06:33.335Z,1.90
2022-09-12T17:09:01.565Z,2.30
2022-09-12T17:11:30.946Z,2.00
2022-09-12T17:14:07.140Z,1.90
2022-09-12T17:16:42.728Z,2.50
2022-09-12T17:19:14.126Z,2.27
2022-09-12T17:21:41.761Z,2.40
2022-09-12T17:24:09.199Z,2.77
2022-09-12T17:26:36.844Z,2.67
2022-09-12T17:29:04.744Z,2.43
2022-09-12T17:31:32.289Z,2.37
2022-09-12T17:34:00.293Z,2.50
2022-09-12T17:36:28.320Z,2.43
2022-09-12T17:38:56.314Z,2.20
2022-09-12T17:41:29.701Z,2.10
2022-09-12T17:43:57.664Z,2.50
2022-09-12T17:46:26.899Z,2.10
2022-09-12T17:48:55.579Z,2.30
2022-09-12T17:51:23.733Z,2.07
2022-09-12T17:54:20.576Z,2.40
2022-09-12T17:56:48.822Z,2.70
2022-09-12T17:59:17.939Z,2.30
2022-09-12T18:01:45.813Z,2.73
2022-09-12T18:04:13.465Z,2.90
2022-09-12T18:06:41.014Z,2.50
2022-09-12T18:09:09.812Z,3.20
2022-09-12T18:11:37.465Z,2.57
2022-09-12T18:14:04.957Z,2.33
2022-09-12T18:16:32.687Z,2.37
2022-09-12T18:19:00.196Z,2.90
2022-09-12T18:21:28.411Z,3.20
2022-09-12T18:23:56.527Z,2.97
2022-09-12T18:26:23.989Z,3.57
2022-09-12T18:28:51.489Z,2.70
2022-09-12T18:31:20.600Z,2.60
2022-09-12T18:33:48.685Z,2.73
2022-09-12T18:36:16.723Z,2.67
2022-09-12T18:38:45.213Z,2.57
2022-09-12T18:41:14.154Z,2.43
2022-09-12T18:43:41.685Z,2.27
2022-09-12T18:46:11.175Z,2.43
2022-09-12T18:48:38.698Z,2.87
2022-09-12T18:51:26.447Z,2.80
2022-09-12T18:53:55.256Z,2.40
2022-09-12T18:56:29.747Z,2.97
2022-09-12T18:58:57.489Z,2.80
2022-09-12T19:01:26.430Z,2.53
2022-09-12T19:03:54.542Z,2.80
2022-09-12T19:06:23.545Z,2.73
2022-09-12T19:08:51.845Z,2.97
2022-09-12T19:11:20.177Z,2.77
2022-09-12T19:13:48.562Z,2.57
2022-09-12T19:16:17.916Z,2.90
2022-09-12T19:18:45.613Z,2.87
2022-09-12T19:21:14.961Z,3.30
2022-09-12T19:23:42.758Z,2.73
2022-09-12T19:26:10.967Z,2.70
2022-09-12T19:28:38.538Z,3.17
2022-09-12T19:31:06.949Z,2.60
2022-09-12T19:33:34.900Z,3.10
2022-09-12T19:36:03.237Z,2.83
2022-09-12T19:38:31.469Z,3.23
2022-09-12T19:41:00.225Z,3.70
2022-09-12T19:43:27.751Z,3.33
2022-09-12T19:45:55.633Z,4.10
2022-09-12T19:48:23.327Z,3.73
2022-09-12T19:50:50.886Z,2.63
2022-09-12T19:53:18.934Z,3.10
2022-09-12T19:55:46.923Z,2.47
2022-09-12T19:58:14.475Z,2.90
2022-09-12T20:00:42.085Z,3.00
2022-09-12T20:03:09.624Z,2.87
2022-09-12T20:05:42.055Z,2.80
2022-09-12T20:08:10.196Z,3.30
2022-09-12T20:10:37.625Z,3.30
2022-09-12T20:13:05.068Z,3.23
2022-09-12T20:15:32.536Z,3.50
2022-09-12T20:18:00.121Z,3.00
2022-09-12T20:20:27.574Z,3.53
2022-09-12T20:22:55.229Z,2.97
2022-09-12T20:25:22.672Z,3.87
2022-09-12T20:27:50.084Z,4.13
2022-09-12T20:30:17.591Z,3.23
2022-09-12T20:32:45.089Z,3.47
2022-09-12T20:35:12.641Z,3.00
2022-09-12T20:37:40.322Z,3.80
2022-09-12T20:40:08.415Z,3.20
2022-09-12T20:42:35.973Z,3.30
2022-09-12T20:45:04.107Z,3.40
2022-09-12T20:47:31.596Z,3.63
2022-09-12T20:50:02.158Z,3.30
2022-09-12T20:52:29.737Z,4.20
2022-09-12T20:54:57.218Z,3.47
2022-09-12T20:57:24.687Z,3.80
2022-09-12T20:59:52.146Z,3.63
2022-09-12T21:02:19.713Z,3.87
2022-09-12T21:04:47.260Z,4.03
2022-09-12T21:07:14.870Z,3.47
2022-09-12T21:09:42.364Z,3.20
2022-09-12T21:12:10.073Z,3.90
2022-09-12T21:14:37.599Z,3.90
2022-09-12T21:17:05.182Z,3.13
2022-09-12T21:19:32.637Z,3.80
2022-09-12T21:22:00.097Z,3.27
2022-09-12T21:24:27.642Z,3.10
2022-09-12T21:26:55.183Z,3.47
2022-09-12T21:29:22.602Z,3.30
2022-09-12T21:31:50.031Z,3.80
2022-09-12T21:34:18.361Z,3.20
2022-09-12T21:36:45.864Z,2.97
2022-09-12T21:39:13.321Z,3.13
2022-09-12T21:41:40.791Z,3.20
2022-09-12T21:44:08.332Z,2.97
2022-09-12T21:46:35.926Z,2.80
2022-09-12T21:49:03.362Z,2.93
2022-09-12T21:51:31.032Z,2.53
2022-09-12T21:53:58.536Z,2.87
2022-09-12T21:56:26.337Z,3.17
2022-09-12T21:58:53.767Z,2.83
2022-09-12T22:01:21.464Z,3.37
2022-09-12T22:03:49.032Z,3.53
2022-09-12T22:06:20.590Z,3.00
2022-09-12T22:08:49.921Z,3.03
2022-09-12T22:11:17.427Z,3.60
2022-09-12T22:13:44.937Z,3.07
2022-09-12T22:16:12.646Z,2.80
2022-09-12T22:18:40.154Z,2.83
2022-09-12T22:21:15.561Z,3.73
2022-09-12T22:23:43.075Z,3.33
2022-09-12T22:26:10.623Z,2.93
2022-09-12T22:28:38.288Z,3.00
2022-09-12T22:31:05.866Z,2.90
2022-09-12T22:33:33.447Z,3.67
2022-09-12T22:36:00.894Z,3.20
2022-09-12T22:38:28.510Z,3.03
2022-09-12T22:40:56.216Z,3.60
2022-09-12T22:43:23.736Z,3.23
2022-09-12T22:45:51.201Z,3.33
2022-09-12T22:48:18.688Z,4.20
2022-09-12T22:50:46.307Z,3.60
2022-09-12T22:53:13.790Z,4.60
2022-09-12T22:55:43.141Z,3.67
2022-09-12T22:58:11.010Z,3.83
2022-09-12T23:00:38.663Z,3.63
2022-09-12T23:03:06.242Z,3.57
2022-09-12T23:05:33.897Z,3.83
2022-09-12T23:08:01.535Z,3.53
2022-09-12T23:10:29.046Z,3.30
2022-09-12T23:12:56.549Z,3.53
2022-09-12T23:15:23.970Z,3.40
2022-09-12T23:17:51.529Z,3.47
2022-09-12T23:20:19.010Z,2.83
2022-09-12T23:22:46.495Z,3.13
2022-09-12T23:25:13.921Z,3.50
2022-09-12T23:27:41.418Z,2.63
2022-09-12T23:30:14.861Z,3.00
2022-09-12T23:32:42.301Z,3.13
2022-09-12T23:35:11.864Z,2.57
2022-09-12T23:37:39.373Z,3.10
2022-09-12T23:40:07.121Z,2.87
2022-09-12T23:42:34.801Z,2.43
2022-09-12T23:45:02.273Z,2.50
2022-09-12T23:47:29.693Z,2.83
2022-09-12T23:49:57.145Z,2.40
2022-09-12T23:52:24.831Z,2.67
2022-09-12T23:54:52.337Z,2.70
2022-09-12T23:57:19.774Z,2.67
2022-09-12T23:59:47.361Z,2.73
